Flight Track Log - Related Links

Times and Time Zones

All times are in EDT time to prevent confusion due to time zone crossing. See the SKQ45 flight status page for this flight to view local times or setup timezone preferences in your user account.

Time Position Orientation Groundspeed Altitude Reporting Facility
EDT Latitude Longitude Course Direction KTS MPH feet Rate Location/Type
Thu 02:01:06 AM 40.0678 -82.9994 116° Southeast 146 168 3,100  Level Indianapolis Center
Thu 02:01:27 AM 40.0586 -82.9908 144° Southeast 136 157 3,500 1,185 Climbing Indianapolis Center
Thu 02:02:27 AM 40.0242 -82.9625 148° Southeast 143 165 4,700 1,250 Climbing Indianapolis Center
Thu 02:03:27 AM 39.9886 -82.9250 141° Southeast 158 182 6,000 1,388 Climbing Indianapolis Center
Thu 02:04:28 AM 39.9519 -82.8908 144° Southeast 160 184 7,500 1,392 Climbing Indianapolis Center
Thu 02:06:28 AM 39.8711 -82.8147 144° Southeast 179 206 10,200 1,260 Climbing Indianapolis Center
Thu 02:07:29 AM 39.8350 -82.7806 144° Southeast 188 216 11,300 1,140 Climbing Indianapolis Center
Thu 02:08:29 AM 39.7919 -82.7408 145° Southeast 188 216 12,500 1,150 Climbing Indianapolis Center
Thu 02:09:29 AM 39.7497 -82.7011 144° Southeast 186 214 13,600 1,140 Climbing Indianapolis Center
Thu 02:10:30 AM 39.7042 -82.6586 144° Southeast 197 227 14,800 1,190 Climbing Indianapolis Center
Thu 02:11:30 AM 39.6589 -82.6175 145° Southeast 198 228 16,000 1,050 Climbing Indianapolis Center
Thu 02:12:30 AM 39.6106 -82.5725 144° Southeast 208 239 16,900 843 Climbing Indianapolis Center
Thu 02:13:31 AM 39.5611 -82.5267 144° Southeast 216 249 17,700 843 Climbing Indianapolis Center
Thu 02:14:31 AM 39.5103 -82.4794 144° Southeast 221 254 18,600 650 Climbing Indianapolis Center
Thu 02:15:31 AM 39.4594 -82.4331 145° Southeast 222 255 19,000 200 Climbing Indianapolis Center
Thu 02:16:31 AM 39.4025 -82.3819 145° Southeast 244 281 19,000  Level Indianapolis Center
Thu 02:17:32 AM 39.3436 -82.3267 144° Southeast 259 298 19,000  Level Indianapolis Center
Thu 02:18:32 AM 39.2831 -82.2722 145° Southeast 264 304 19,000  Level Indianapolis Center
Thu 02:19:32 AM 39.2228 -82.2169 145° Southeast 265 305 19,000  Level Indianapolis Center
Thu 02:20:32 AM 39.1622 -82.1617 145° Southeast 265 305 19,000  Level Indianapolis Center
Thu 02:21:33 AM 39.1025 -82.1078 145° Southeast 263 303 19,000  Level Indianapolis Center
Thu 02:22:33 AM 39.0433 -82.0531 144° Southeast 262 302 19,000  Level Indianapolis Center
Thu 02:23:33 AM 38.9819 -81.9989 146° Southeast 265 305 19,000  Level Indianapolis Center
Thu 02:24:33 AM 38.9219 -81.9439 144° Southeast 265 305 19,000  Level Indianapolis Center
Thu 02:25:33 AM 38.8614 -81.8894 145° Southeast 265 305 19,000  Level Indianapolis Center
Thu 02:26:34 AM 38.8022 -81.8361 145° Southeast 262 302 19,000  Level Indianapolis Center
Thu 02:27:34 AM 38.7428 -81.7833 145° Southeast 260 299 19,000  Level Indianapolis Center
Thu 02:28:34 AM 38.6847 -81.7308 145° Southeast 257 296 19,000  Level Indianapolis Center
Thu 02:29:34 AM 38.6261 -81.6789 145° Southeast 261 300 19,000  Level Indianapolis Center
Thu 02:30:35 AM 38.5675 -81.6269 145° Southeast 260 299 19,000  Level Indianapolis Center
Thu 02:31:35 AM 38.5097 -81.5750 145° Southeast 258 297 19,000  Level Indianapolis Center
Thu 02:32:35 AM 38.4514 -81.5233 145° Southeast 257 296 19,000  Level Indianapolis Center
Thu 02:33:35 AM 38.3806 -81.4606 145° Southeast 258 297 19,000  Level Indianapolis Center
Thu 02:34:36 AM 38.3206 -81.4078 145° Southeast 261 300 19,000  Level Indianapolis Center
Thu 02:35:36 AM 38.2614 -81.3564 146° Southeast 258 297 19,000  Level Indianapolis Center
Thu 02:36:36 AM 38.2019 -81.3031 145° Southeast 260 299 19,000  Level Indianapolis Center
Thu 02:37:36 AM 38.1414 -81.2511 146° Southeast 261 300 19,000  Level Indianapolis Center
Thu 02:38:36 AM 38.0819 -81.1986 145° Southeast 261 300 19,000  Level Indianapolis Center
Thu 02:39:37 AM 38.0222 -81.1461 145° Southeast 261 300 19,000  Level Indianapolis Center
Thu 02:40:37 AM 37.9628 -81.0933 145° Southeast 260 299 19,000  Level Indianapolis Center
Thu 02:41:37 AM 37.9017 -81.0417 146° Southeast 262 302 19,000  Level Indianapolis Center
Thu 02:42:11 AM 37.8669 -81.0161 150° Southeast 260 299 19,000  Level Washington Center
Thu 02:43:11 AM 37.8067 -80.9644 146° Southeast 265 305 19,000  Level Washington Center
Thu 02:44:11 AM 37.7464 -80.9128 146° Southeast 265 305 19,000  Level Washington Center
Thu 02:45:11 AM 37.6942 -80.8672 145° Southeast 265 305 19,000  Level Washington Center
Thu 02:46:11 AM 37.6319 -80.8156 147° Southeast 265 305 19,000  Level Washington Center
Thu 02:47:11 AM 37.5736 -80.7619 144° Southeast 265 305 19,000  Level Washington Center
Thu 02:48:11 AM 37.5072 -80.7075 147° Southeast 265 305 19,000  Level Washington Center
Thu 02:49:11 AM 37.4469 -80.6539 145° Southeast 270 311 19,000  Level Washington Center
Thu 02:50:11 AM 37.3864 -80.6028 146° Southeast 270 311 19,000  Level Washington Center
Thu 02:51:11 AM 37.3261 -80.5517 146° Southeast 270 311 19,000  Level Washington Center
Thu 02:52:11 AM 37.2717 -80.5011 144° Southeast 270 311 19,000  Level Washington Center
Thu 02:53:11 AM 37.2111 -80.4531 148° Southeast 270 311 19,000  Level Washington Center
Thu 02:54:11 AM 37.1506 -80.3997 145° Southeast 270 311 19,000 -200 Level Washington Center
Thu 02:55:11 AM 37.0839 -80.3461 147° Southeast 270 311 18,600 -600 Descending Washington Center
Thu 02:56:11 AM 37.0194 -80.2900 145° Southeast 270 311 17,800 -900 Descending Washington Center
Thu 02:57:11 AM 36.9569 -80.2367 146° Southeast 270 311 16,800 -950 Descending Washington Center
Thu 02:58:11 AM 36.8942 -80.1836 146° Southeast 270 311 15,900 -1,000 Descending Washington Center
Thu 02:59:11 AM 36.8397 -80.1364 145° Southeast 276 318 14,800 -1,100 Descending Washington Center
Thu 03:01:00 AM 36.7388 -80.0554 141° Southeast  Level FlightAware Approximate
Thu 03:08:00 AM 36.3583 -79.7271 149° Southeast  Level FlightAware Approximate
Thu 03:09:00 AM 36.3017 -79.6846 149° Southeast  Level FlightAware Approximate
Thu 03:10:00 AM 36.2450 -79.6421 149° Southeast  Level FlightAware Approximate
Thu 03:11:00 AM 36.1925 -79.5925 141° Southeast  Level FlightAware Approximate
Thu 03:12:00 AM 36.1401 -79.5425 149° Southeast  Level FlightAware Approximate
Thu 03:13:00 AM 36.0835 -79.5001 149° Southeast  Level FlightAware Approximate
Thu 03:14:00 AM 36.0485 -79.4749 152° Southeast  Level Estimated
Thu 03:15:00 AM 36.0485 -79.4749 152° Southeast  Level Estimated

Login

Don't have an account? Register now (free) for customized features, flight alerts, and more!